Uirapuru, Brazil
Current Conditions -  °F | °C
As of 2:00 PM on Thursday 29 Jan 2015 (Local Time) from SBAN Reporting Station
Broken Clouds Broken Clouds  
Wind Chill: 81°   Ceiling: 2500
Heat Index: 82°   Visibility: 6mi
Dew Point: 64°   Wind: 12mph
Humidity: 58%   Direction: 110°ESE
Pressure: 30.12"   Gusts: NA
Location:  14.29°S, 49.92°W
Report Text: SBAN 291600Z 11010KT 9999 BKN025 FEW030TCU 27/18 Q1020
Loading
Personal Weather Stations






























Interactive Weather Map New forecast layout! Learn more

10-Day Weather Forecast

Advertisements
Track Severe Weather on mobile